Time;durP1;ratioP1;P1;durP2;ratioP2;P2;SDS_P1;SDS_P2;PMS_P1;PMS_P2;Temp;Humidity;BMP_temperature;BMP_pressure;BME280_temperature;BME280_humidity;BME280_pressure;Samples;Min_cycle;Max_cycle;Signal;HPM_P1;HPM_P2
2022/10/26 00:02:49;;;;;;;82.80;36.97;;;;;;;;;;6270601;28;20056;-69
2022/10/26 00:05:50;;;;;;;84.18;37.05;;;;;;;;;;6264263;28;20063;-69
2022/10/26 00:08:51;;;;;;;88.18;38.83;;;;;;;;;;6272305;28;20174;-67
2022/10/26 00:11:52;;;;;;;83.97;35.80;;;;;;;;;;6289924;28;20526;-65
2022/10/26 00:14:53;;;;;;;81.75;35.13;;;;;;;;;;6266082;28;20094;-69
2022/10/26 00:17:54;;;;;;;85.53;35.88;;;;;;;;;;6269697;28;20037;-68
2022/10/26 00:20:54;;;;;;;106.63;34.40;;;;;;;;;;6272011;28;20040;-64
2022/10/26 00:23:55;;;;;;;156.80;38.58;;;;;;;;;;6266535;28;20049;-66
2022/10/26 00:26:55;;;;;;;114.05;34.33;;;;;;;;;;6265423;28;20045;-65
2022/10/26 00:29:56;;;;;;;79.30;33.90;;;;;;;;;;6268434;28;20081;-68
2022/10/26 00:32:56;;;;;;;85.55;37.22;;;;;;;;;;6278353;28;20041;-69
2022/10/26 00:35:57;;;;;;;83.20;37.97;;;;;;;;;;6290172;28;21478;-69
2022/10/26 00:38:58;;;;;;;77.50;33.22;;;;;;;;;;6269565;28;20072;-67
2022/10/26 00:41:58;;;;;;;84.13;36.15;;;;;;;;;;6268414;28;20057;-68
2022/10/26 00:45:03;;;;;;;82.65;34.65;;;;;;;;;;6269099;28;20400;-69
2022/10/26 00:48:09;;;;;;;76.43;35.45;;;;;;;;;;6292933;28;20047;-69
2022/10/26 00:51:19;;;;;;;100.72;42.03;;;;;;;;;;6276825;28;20045;-71
2022/10/26 00:54:19;;;;;;;85.28;37.28;;;;;;;;;;6271507;28;20057;-70
2022/10/26 00:57:21;;;;;;;77.53;34.05;;;;;;;;;;6267274;28;20056;-64
2022/10/26 01:00:21;;;;;;;79.38;33.70;;;;;;;;;;6269540;28;20159;-70
2022/10/26 01:03:26;;;;;;;72.55;33.10;;;;;;;;;;6269098;28;20044;-68
2022/10/26 01:06:27;;;;;;;;;;;;;;;;;;6243344;28;20073;-68
2022/10/26 01:09:28;;;;;;;83.88;34.28;;;;;;;;;;6231396;28;19951;-65
2022/10/26 01:12:29;;;;;;;94.00;36.05;;;;;;;;;;6229543;28;20050;-68
2022/10/26 01:15:43;;;;;;;81.57;34.60;;;;;;;;;;6238842;28;20042;-70
2022/10/26 01:19:09;;;;;;;82.72;35.10;;;;;;;;;;6218528;28;20465;-69
2022/10/26 01:22:28;;;;;;;82.68;36.22;;;;;;;;;;6219457;28;20088;-68
2022/10/26 01:25:47;;;;;;;81.78;36.00;;;;;;;;;;6222315;28;20049;-64
2022/10/26 01:29:06;;;;;;;81.55;34.38;;;;;;;;;;6218025;28;20140;-71
2022/10/26 01:32:17;;;;;;;88.68;38.20;;;;;;;;;;6225458;28;20061;-65
2022/10/26 01:35:29;;;;;;;75.20;33.17;;;;;;;;;;6229989;28;20068;-71
2022/10/26 01:39:01;;;;;;;79.18;35.58;;;;;;;;;;6242787;28;20393;-69
2022/10/26 01:42:04;;;;;;;80.10;35.33;;;;;;;;;;6238891;28;20053;-69
2022/10/26 01:45:08;;;;;;;89.90;38.47;;;;;;;;;;6227541;28;20097;-68
2022/10/26 01:48:12;;;;;;;83.80;36.28;;;;;;;;;;6217745;28;20393;-70
2022/10/26 01:51:14;;;;;;;86.93;36.58;;;;;;;;;;6215739;28;21211;-70
2022/10/26 01:54:15;;;;;;;81.10;33.77;;;;;;;;;;6218555;28;20124;-71
2022/10/26 01:57:19;;;;;;;80.45;34.70;;;;;;;;;;6230405;28;20295;-70
2022/10/26 02:00:19;;;;;;;91.05;35.63;;;;;;;;;;6235826;28;20663;-67
2022/10/26 02:03:37;;;;;;;78.82;34.70;;;;;;;;;;6235565;28;20046;-68
2022/10/26 02:07:03;;;;;;;73.18;34.38;;;;;;;;;;6228149;28;20053;-70
2022/10/26 02:10:31;;;;;;;76.15;33.22;;;;;;;;;;6241103;28;20053;-70
2022/10/26 02:13:47;;;;;;;74.00;32.97;;;;;;;;;;6220290;28;20140;-68
2022/10/26 02:16:54;;;;;;;77.70;35.53;;;;;;;;;;6218853;28;20049;-68
2022/10/26 02:20:06;;;;;;;81.90;33.55;;;;;;;;;;6216623;28;20127;-71
2022/10/26 02:23:08;;;;;;;72.07;33.83;;;;;;;;;;6217152;28;20068;-68
2022/10/26 02:26:11;;;;;;;;;;;;;;;;;;6219881;28;20076;-68
2022/10/26 02:29:18;;;;;;;75.38;33.95;;;;;;;;;;6218303;28;20008;-70
2022/10/26 02:32:21;;;;;;;70.50;33.50;;;;;;;;;;6230867;28;20065;-69
2022/10/26 02:35:28;;;;;;;72.70;32.10;;;;;;;;;;6239489;28;20049;-66
2022/10/26 02:38:30;;;;;;;79.35;34.10;;;;;;;;;;6235306;28;20214;-70
2022/10/26 02:41:32;;;;;;;71.90;33.42;;;;;;;;;;6223514;28;20057;-70
2022/10/26 02:44:44;;;;;;;74.28;34.20;;;;;;;;;;6239054;28;20099;-68
2022/10/26 02:47:45;;;;;;;78.50;34.05;;;;;;;;;;6221407;28;20049;-68
2022/10/26 02:50:51;;;;;;;71.82;32.38;;;;;;;;;;6240388;28;20049;-66
2022/10/26 02:54:03;;;;;;;73.55;33.42;;;;;;;;;;6217741;28;20057;-65
2022/10/26 02:57:03;;;;;;;82.15;35.88;;;;;;;;;;6241221;28;20554;-69
2022/10/26 03:00:09;;;;;;;74.00;33.97;;;;;;;;;;6222411;28;20826;-66
2022/10/26 03:03:11;;;;;;;80.40;34.60;;;;;;;;;;6215364;28;20554;-68
2022/10/26 03:06:11;;;;;;;76.35;34.63;;;;;;;;;;6258457;28;20045;-68
2022/10/26 03:09:12;;;;;;;74.88;33.05;;;;;;;;;;6269920;28;20131;-67
2022/10/26 03:12:12;;;;;;;74.32;33.90;;;;;;;;;;6263475;28;20045;-69
2022/10/26 03:15:14;;;;;;;75.95;32.95;;;;;;;;;;6274888;28;20455;-70
2022/10/26 03:18:14;;;;;;;73.83;33.43;;;;;;;;;;6284009;28;20041;-66
2022/10/26 03:21:15;;;;;;;77.18;34.08;;;;;;;;;;6273579;28;20090;-68
2022/10/26 03:24:15;;;;;;;75.47;33.97;;;;;;;;;;6285928;28;20124;-69
2022/10/26 03:27:16;;;;;;;75.63;33.47;;;;;;;;;;6266712;28;20056;-70
2022/10/26 03:30:17;;;;;;;80.85;35.10;;;;;;;;;;6267038;28;20526;-64
2022/10/26 03:33:18;;;;;;;79.45;36.05;;;;;;;;;;6264013;28;20379;-70
2022/10/26 03:36:19;;;;;;;80.43;34.13;;;;;;;;;;6285895;28;20037;-68
2022/10/26 03:39:20;;;;;;;75.47;35.03;;;;;;;;;;6288500;28;20070;-68
2022/10/26 03:42:20;;;;;;;83.88;36.05;;;;;;;;;;6271443;28;20479;-69
2022/10/26 03:45:21;;;;;;;84.35;37.70;;;;;;;;;;6268193;28;20475;-67
2022/10/26 03:48:21;;;;;;;83.82;37.17;;;;;;;;;;6269719;28;20045;-69
2022/10/26 03:51:22;;;;;;;80.97;35.15;;;;;;;;;;6275446;28;20076;-68
2022/10/26 03:54:22;;;;;;;82.68;36.25;;;;;;;;;;6290151;28;20049;-69
2022/10/26 03:57:23;;;;;;;79.45;33.95;;;;;;;;;;6285620;28;20131;-68
2022/10/26 04:00:23;;;;;;;84.45;36.85;;;;;;;;;;6275741;28;21478;-67
2022/10/26 04:03:24;;;;;;;85.22;38.78;;;;;;;;;;6271380;28;20724;-69
2022/10/26 04:06:24;;;;;;;80.53;36.67;;;;;;;;;;6268028;28;20041;-66
2022/10/26 04:09:25;;;;;;;80.45;35.53;;;;;;;;;;6269887;28;20080;-68
2022/10/26 04:12:25;;;;;;;84.88;37.53;;;;;;;;;;6271393;28;20041;-69
2022/10/26 04:15:28;;;;;;;75.63;35.38;;;;;;;;;;6268492;28;20044;-69
2022/10/26 04:18:28;;;;;;;80.55;35.55;;;;;;;;;;6269330;28;20045;-69
2022/10/26 04:21:31;;;;;;;76.45;32.58;;;;;;;;;;6269342;28;20101;-68
2022/10/26 04:24:32;;;;;;;81.78;34.30;;;;;;;;;;6270010;28;20045;-68
2022/10/26 04:27:32;;;;;;;74.07;34.58;;;;;;;;;;6280156;28;20041;-68
2022/10/26 04:30:34;;;;;;;84.28;34.55;;;;;;;;;;6269021;28;20056;-65
2022/10/26 04:33:35;;;;;;;80.10;33.58;;;;;;;;;;6277091;28;20058;-68
2022/10/26 04:36:35;;;;;;;81.38;35.40;;;;;;;;;;6286410;28;20045;-67
2022/10/26 04:39:37;;;;;;;84.45;37.20;;;;;;;;;;6271645;28;20080;-65
2022/10/26 04:42:45;;;;;;;81.50;35.85;;;;;;;;;;6255578;28;20052;-66
2022/10/26 04:45:46;;;;;;;84.85;36.33;;;;;;;;;;6270510;28;20048;-67
2022/10/26 04:48:47;;;;;;;85.97;36.40;;;;;;;;;;6268273;28;20068;-69
2022/10/26 04:51:48;;;;;;;81.40;36.25;;;;;;;;;;6267771;28;20096;-68
2022/10/26 04:54:48;;;;;;;91.82;38.03;;;;;;;;;;6268969;28;20044;-67
2022/10/26 04:57:49;;;;;;;89.78;38.00;;;;;;;;;;6273819;28;20064;-67
2022/10/26 05:00:50;;;;;;;84.68;37.30;;;;;;;;;;6258663;28;20396;-68
2022/10/26 05:03:51;;;;;;;84.60;37.20;;;;;;;;;;6285444;28;20515;-68
2022/10/26 05:06:52;;;;;;;83.43;37.63;;;;;;;;;;6281627;28;20113;-69
2022/10/26 05:09:53;;;;;;;84.68;38.15;;;;;;;;;;6268335;28;20044;-68
2022/10/26 05:12:55;;;;;;;82.95;37.03;;;;;;;;;;6261987;28;20507;-69
2022/10/26 05:15:56;;;;;;;79.55;35.53;;;;;;;;;;6264392;28;20081;-68
2022/10/26 05:18:56;;;;;;;89.60;36.03;;;;;;;;;;6267186;28;20093;-67
2022/10/26 05:21:57;;;;;;;81.60;37.42;;;;;;;;;;6267570;28;20052;-67
2022/10/26 05:24:57;;;;;;;103.38;47.85;;;;;;;;;;6269156;28;20496;-65
2022/10/26 05:27:59;;;;;;;80.68;34.03;;;;;;;;;;6269280;28;20468;-68
2022/10/26 05:31:00;;;;;;;76.55;33.47;;;;;;;;;;6269520;28;20053;-69
2022/10/26 05:34:00;;;;;;;92.88;39.47;;;;;;;;;;6266727;28;20083;-68
2022/10/26 05:37:01;;;;;;;103.25;41.13;;;;;;;;;;6268359;28;20044;-67
2022/10/26 05:40:01;;;;;;;96.38;41.45;;;;;;;;;;6271666;28;20081;-65
2022/10/26 05:43:03;;;;;;;99.72;44.42;;;;;;;;;;6268210;28;20041;-69
2022/10/26 05:46:04;;;;;;;92.40;41.57;;;;;;;;;;6268233;28;20075;-66
2022/10/26 05:49:04;;;;;;;87.63;39.35;;;;;;;;;;6273846;28;20048;-63
2022/10/26 05:52:05;;;;;;;84.78;36.42;;;;;;;;;;6267047;28;20048;-65
2022/10/26 05:55:07;;;;;;;84.88;37.20;;;;;;;;;;6266749;28;20488;-66
2022/10/26 05:58:10;;;;;;;85.47;36.75;;;;;;;;;;6266516;28;20048;-68
2022/10/26 06:01:24;;;;;;;76.32;35.53;;;;;;;;;;6269088;28;20053;-63
2022/10/26 06:04:37;;;;;;;80.38;36.13;;;;;;;;;;6277421;28;20060;-66
2022/10/26 06:07:38;;;;;;;80.93;35.53;;;;;;;;;;6258692;28;20051;-63
2022/10/26 06:10:39;;;;;;;76.47;36.22;;;;;;;;;;6288243;28;20395;-64
2022/10/26 06:13:40;;;;;;;76.50;34.25;;;;;;;;;;6281717;28;20037;-63
2022/10/26 06:17:14;;;;;;;81.53;37.05;;;;;;;;;;6267057;28;20083;-63
2022/10/26 06:20:30;;;;;;;89.65;38.85;;;;;;;;;;6266447;28;20057;-67
2022/10/26 06:23:54;;;;;;;87.97;39.05;;;;;;;;;;6266975;28;20044;-64
2022/10/26 06:27:32;;;;;;;88.80;38.58;;;;;;;;;;6266070;28;20051;-64
2022/10/26 06:30:33;;;;;;;81.30;36.33;;;;;;;;;;6264210;28;20155;-68
2022/10/26 06:33:33;;;;;;;75.07;34.10;;;;;;;;;;6264869;28;20053;-70
2022/10/26 06:36:35;;;;;;;78.47;35.65;;;;;;;;;;6267243;28;20051;-70
2022/10/26 06:39:41;;;;;;;76.27;35.90;;;;;;;;;;6268924;28;20135;-67
2022/10/26 06:42:42;;;;;;;85.07;38.65;;;;;;;;;;6264187;28;20080;-66
2022/10/26 06:45:46;;;;;;;85.53;37.55;;;;;;;;;;6269638;28;20138;-67
2022/10/26 06:49:38;;;;;;;90.78;38.17;;;;;;;;;;6249637;28;20191;-69
2022/10/26 06:52:51;;;;;;;88.53;39.33;;;;;;;;;;6225690;28;20051;-69
2022/10/26 06:55:52;;;;;;;99.13;44.10;;;;;;;;;;6274046;28;20501;-69
2022/10/26 06:58:54;;;;;;;115.25;52.88;;;;;;;;;;6266291;28;20051;-68
2022/10/26 07:01:55;;;;;;;128.00;56.13;;;;;;;;;;6265023;28;21046;-70
2022/10/26 07:04:55;;;;;;;216.13;75.97;;;;;;;;;;6266898;28;20064;-69
2022/10/26 07:07:56;;;;;;;220.93;71.95;;;;;;;;;;6266015;28;20048;-68
2022/10/26 07:10:56;;;;;;;207.98;65.88;;;;;;;;;;6265951;28;20047;-69
2022/10/26 07:13:57;;;;;;;165.35;53.63;;;;;;;;;;6265395;28;20535;-70
2022/10/26 07:16:57;;;;;;;162.60;52.85;;;;;;;;;;6264534;28;20056;-69
2022/10/26 07:19:58;;;;;;;90.93;38.35;;;;;;;;;;6266761;28;20399;-65
2022/10/26 07:22:58;;;;;;;73.93;32.15;;;;;;;;;;6263475;28;20045;-68
2022/10/26 07:25:59;;;;;;;82.40;36.60;;;;;;;;;;6265316;28;20055;-69
2022/10/26 07:28:59;;;;;;;72.03;29.05;;;;;;;;;;6268833;28;20109;-69
2022/10/26 07:32:00;;;;;;;66.05;29.00;;;;;;;;;;6267384;28;20068;-70
2022/10/26 07:35:01;;;;;;;73.45;28.63;;;;;;;;;;6262249;28;20060;-69
2022/10/26 07:38:02;;;;;;;67.50;29.17;;;;;;;;;;6276951;28;20048;-69
2022/10/26 07:41:03;;;;;;;70.55;28.17;;;;;;;;;;6288901;28;20060;-69
2022/10/26 07:44:03;;;;;;;106.38;36.65;;;;;;;;;;6291966;28;20140;-68
2022/10/26 07:47:04;;;;;;;88.90;32.80;;;;;;;;;;6288524;28;20045;-69
2022/10/26 07:50:07;;;;;;;47.05;21.38;;;;;;;;;;6289512;28;20052;-70
2022/10/26 07:53:07;;;;;;;46.08;20.85;;;;;;;;;;6291589;28;20050;-70
2022/10/26 07:56:09;;;;;;;54.10;21.65;;;;;;;;;;6288930;28;20135;-70
2022/10/26 07:59:12;;;;;;;50.42;21.35;;;;;;;;;;6292174;28;20044;-70
2022/10/26 08:02:12;;;;;;;47.38;21.92;;;;;;;;;;6289503;28;20048;-67
2022/10/26 08:05:13;;;;;;;43.95;18.75;;;;;;;;;;6269920;28;20053;-70
2022/10/26 08:08:13;;;;;;;43.90;20.13;;;;;;;;;;6265236;28;20530;-70
2022/10/26 08:11:15;;;;;;;49.83;21.02;;;;;;;;;;6268176;28;20053;-67
2022/10/26 08:14:16;;;;;;;41.05;19.77;;;;;;;;;;6267346;28;20050;-68
2022/10/26 08:17:16;;;;;;;40.88;18.70;;;;;;;;;;6268855;28;20045;-70
2022/10/26 08:20:17;;;;;;;42.03;19.45;;;;;;;;;;6268144;28;20110;-69
2022/10/26 08:23:17;;;;;;;42.40;18.23;;;;;;;;;;6274909;28;20480;-70
2022/10/26 08:26:19;;;;;;;42.92;19.17;;;;;;;;;;6270609;28;20158;-70
2022/10/26 08:29:19;;;;;;;40.83;18.53;;;;;;;;;;6280242;28;20060;-69
2022/10/26 08:32:20;;;;;;;39.35;18.10;;;;;;;;;;6271424;28;20056;-69
2022/10/26 08:35:20;;;;;;;48.20;19.15;;;;;;;;;;6271214;28;20053;-70
2022/10/26 08:38:21;;;;;;;49.28;19.83;;;;;;;;;;6269602;28;20057;-70
2022/10/26 08:41:34;;;;;;;49.28;20.20;;;;;;;;;;6269321;28;20110;-67
2022/10/26 08:44:45;;;;;;;46.70;20.85;;;;;;;;;;6277595;28;20072;-68
2022/10/26 08:47:51;;;;;;;53.38;21.90;;;;;;;;;;6289407;28;20048;-68
2022/10/26 08:50:55;;;;;;;51.35;24.27;;;;;;;;;;6274829;28;20152;-70
2022/10/26 08:54:00;;;;;;;38.95;17.98;;;;;;;;;;6282405;28;20049;-70
2022/10/26 08:57:12;;;;;;;42.35;17.08;;;;;;;;;;6279887;28;20053;-66
2022/10/26 09:00:23;;;;;;;44.80;17.52;;;;;;;;;;6266608;28;20600;-69
2022/10/26 09:03:25;;;;;;;43.35;18.25;;;;;;;;;;6270027;28;20044;-69
2022/10/26 09:06:38;;;;;;;45.53;18.75;;;;;;;;;;6269879;28;20044;-71
2022/10/26 09:10:00;;;;;;;33.47;15.23;;;;;;;;;;6267519;28;20048;-67
2022/10/26 09:13:04;;;;;;;29.27;13.75;;;;;;;;;;6270133;28;20068;-66
2022/10/26 09:16:25;;;;;;;30.55;13.45;;;;;;;;;;6269705;28;20710;-68
2022/10/26 09:20:03;;;;;;;32.83;14.68;;;;;;;;;;6265807;28;20052;-69
2022/10/26 09:23:31;;;;;;;29.63;12.23;;;;;;;;;;6200997;28;20484;-69
2022/10/26 09:26:51;;;;;;;30.13;13.32;;;;;;;;;;6271574;28;20139;-72
2022/10/26 09:29:53;;;;;;;30.70;12.27;;;;;;;;;;6272347;28;20586;-73
2022/10/26 09:32:58;;;;;;;34.28;14.20;;;;;;;;;;6288511;28;20135;-68
2022/10/26 09:36:08;;;;;;;32.80;14.20;;;;;;;;;;6275394;28;20060;-72
2022/10/26 09:39:22;;;;;;;32.80;14.63;;;;;;;;;;6265495;28;20454;-70
2022/10/26 09:42:48;;;;;;;32.03;14.13;;;;;;;;;;6286227;28;20056;-69
2022/10/26 09:45:51;;;;;;;30.65;13.02;;;;;;;;;;6292200;28;20121;-67
2022/10/26 09:48:57;;;;;;;29.95;13.43;;;;;;;;;;6292650;28;20110;-69
2022/10/26 09:51:58;;;;;;;25.05;12.05;;;;;;;;;;6291590;28;20067;-68
2022/10/26 09:54:58;;;;;;;32.63;13.48;;;;;;;;;;6292503;28;20045;-67
2022/10/26 09:58:02;;;;;;;28.33;12.52;;;;;;;;;;6293688;28;20044;-67
2022/10/26 10:01:03;;;;;;;29.48;13.32;;;;;;;;;;6290895;28;20048;-70
2022/10/26 10:04:13;;;;;;;26.30;12.45;;;;;;;;;;6292453;28;20048;-72
2022/10/26 10:07:18;;;;;;;27.02;12.20;;;;;;;;;;6291394;28;20041;-77
2022/10/26 10:10:21;;;;;;;26.45;12.35;;;;;;;;;;6289980;28;20040;-75
2022/10/26 10:13:25;;;;;;;25.58;11.55;;;;;;;;;;6276659;28;20136;-72
2022/10/26 10:16:26;;;;;;;27.55;11.73;;;;;;;;;;6269039;28;20041;-76
2022/10/26 10:19:32;;;;;;;28.67;11.35;;;;;;;;;;6251799;28;20072;-77
2022/10/26 10:22:32;;;;;;;21.75;11.02;;;;;;;;;;6268335;28;20040;-74
2022/10/26 10:25:35;;;;;;;22.40;9.68;;;;;;;;;;6265884;28;20117;-73
2022/10/26 10:28:38;;;;;;;22.00;9.77;;;;;;;;;;6284551;28;20052;-74
2022/10/26 10:31:39;;;;;;;25.38;9.23;;;;;;;;;;6270012;28;20482;-78
2022/10/26 10:34:39;;;;;;;17.30;8.60;;;;;;;;;;6271222;28;20048;-70
2022/10/26 10:37:45;;;;;;;21.50;8.27;;;;;;;;;;6269945;28;20045;-71
2022/10/26 10:40:53;;;;;;;22.02;8.38;;;;;;;;;;6269350;28;20106;-69
2022/10/26 10:44:04;;;;;;;19.67;8.18;;;;;;;;;;6289392;28;20052;-71
2022/10/26 10:47:06;;;;;;;18.45;7.20;;;;;;;;;;6270893;28;20517;-70
2022/10/26 10:50:16;;;;;;;19.42;7.45;;;;;;;;;;6268662;28;20103;-70
2022/10/26 10:53:40;;;;;;;19.25;7.47;;;;;;;;;;6263576;28;20506;-72
2022/10/26 10:56:48;;;;;;;16.38;7.07;;;;;;;;;;6282261;28;20139;-72
2022/10/26 11:00:01;;;;;;;21.90;7.18;;;;;;;;;;6279933;28;20040;-73
2022/10/26 11:03:32;;;;;;;19.23;7.15;;;;;;;;;;6269316;28;20065;-77
2022/10/26 11:06:36;;;;;;;16.52;7.47;;;;;;;;;;6268826;28;20049;-75
2022/10/26 11:09:40;;;;;;;15.00;7.28;;;;;;;;;;6263541;28;20124;-68
2022/10/26 11:12:50;;;;;;;20.35;6.95;;;;;;;;;;6267316;28;20052;-75
2022/10/26 11:15:58;;;;;;;19.52;6.57;;;;;;;;;;6269043;28;20052;-68
2022/10/26 11:19:25;;;;;;;14.63;6.35;;;;;;;;;;6265359;28;20052;-78
2022/10/26 11:22:39;;;;;;;14.93;6.32;;;;;;;;;;6267356;28;20136;-74
2022/10/26 11:25:54;;;;;;;14.95;5.68;;;;;;;;;;6265824;28;20048;-73
2022/10/26 11:29:02;;;;;;;13.02;6.40;;;;;;;;;;6279230;28;20651;-77
2022/10/26 11:32:14;;;;;;;17.80;5.90;;;;;;;;;;6268046;28;20459;-75
2022/10/26 11:35:28;;;;;;;17.15;6.22;;;;;;;;;;6267983;28;20092;-73
2022/10/26 11:39:00;;;;;;;13.73;5.28;;;;;;;;;;6266629;28;20053;-76
2022/10/26 11:42:10;;;;;;;14.13;6.07;;;;;;;;;;6267840;28;21201;-75
2022/10/26 11:45:21;;;;;;;14.77;6.05;;;;;;;;;;6267251;28;20052;-67
2022/10/26 11:48:35;;;;;;;12.50;5.22;;;;;;;;;;6266963;28;20074;-70
2022/10/26 11:51:40;;;;;;;17.83;6.07;;;;;;;;;;6265677;28;20140;-69
2022/10/26 11:54:59;;;;;;;11.27;5.45;;;;;;;;;;6278237;28;20075;-70
2022/10/26 11:58:01;;;;;;;21.25;4.63;;;;;;;;;;6294903;28;20048;-73
2022/10/26 12:01:12;;;;;;;11.13;4.38;;;;;;;;;;6294988;28;20044;-70
2022/10/26 12:04:13;;;;;;;9.68;4.03;;;;;;;;;;6296013;28;20584;-66
2022/10/26 12:07:27;;;;;;;9.73;4.47;;;;;;;;;;6295295;28;20048;-69
2022/10/26 12:10:31;;;;;;;9.55;3.90;;;;;;;;;;6292945;28;20146;-64
2022/10/26 12:13:44;;;;;;;12.23;3.75;;;;;;;;;;6296343;28;20467;-65
2022/10/26 12:17:04;;;;;;;11.27;3.83;;;;;;;;;;6295191;28;20045;-74
2022/10/26 12:20:24;;;;;;;11.23;3.15;;;;;;;;;;6293437;28;20488;-74
2022/10/26 12:23:24;;;;;;;10.40;3.70;;;;;;;;;;6292179;28;20169;-74
2022/10/26 12:26:28;;;;;;;9.05;3.92;;;;;;;;;;6278920;28;20041;-73
2022/10/26 12:29:37;;;;;;;8.98;3.88;;;;;;;;;;6270313;28;20048;-72
2022/10/26 12:32:39;;;;;;;10.60;3.88;;;;;;;;;;6268122;28;20136;-75
2022/10/26 12:35:44;;;;;;;11.05;3.70;;;;;;;;;;6268090;28;20487;-75
2022/10/26 12:38:45;;;;;;;9.63;3.28;;;;;;;;;;6270989;28;22292;-69
2022/10/26 12:41:54;;;;;;;7.80;3.80;;;;;;;;;;6270856;28;20051;-70
2022/10/26 12:44:58;;;;;;;9.63;3.78;;;;;;;;;;6266381;28;20168;-69
2022/10/26 12:48:00;;;;;;;8.75;3.53;;;;;;;;;;6267854;28;20063;-66
2022/10/26 12:51:20;;;;;;;7.78;3.33;;;;;;;;;;6264868;28;20092;-67
2022/10/26 12:54:43;;;;;;;9.18;3.20;;;;;;;;;;6266843;28;20119;-68
2022/10/26 12:58:13;;;;;;;8.20;3.17;;;;;;;;;;6270309;28;20131;-70
2022/10/26 13:01:59;;;;;;;7.90;3.30;;;;;;;;;;6269357;28;20094;-77
2022/10/26 13:05:41;;;;;;;9.23;3.75;;;;;;;;;;6249200;28;20057;-77
2022/10/26 13:08:47;;;;;;;8.87;3.50;;;;;;;;;;6244476;28;20072;-74
2022/10/26 13:11:51;;;;;;;9.25;3.20;;;;;;;;;;6267707;28;20302;-74
2022/10/26 13:15:02;;;;;;;9.88;3.45;;;;;;;;;;6264321;28;20053;-76
2022/10/26 13:18:13;;;;;;;9.60;3.60;;;;;;;;;;6269835;28;20143;-72
2022/10/26 13:21:18;;;;;;;10.57;3.53;;;;;;;;;;6272584;28;20064;-70
2022/10/26 13:24:24;;;;;;;10.18;3.40;;;;;;;;;;6268194;28;20040;-69
2022/10/26 13:27:40;;;;;;;7.95;3.63;;;;;;;;;;6270702;28;20403;-70
2022/10/26 13:30:44;;;;;;;11.82;3.83;;;;;;;;;;6288136;28;20462;-67
2022/10/26 13:33:46;;;;;;;9.57;3.60;;;;;;;;;;6293595;28;20046;-70
2022/10/26 13:36:59;;;;;;;9.13;4.10;;;;;;;;;;6291081;28;20070;-68
2022/10/26 13:40:03;;;;;;;11.48;3.90;;;;;;;;;;6273176;28;20049;-70
2022/10/26 13:43:10;;;;;;;9.00;3.80;;;;;;;;;;6291137;28;20064;-70
2022/10/26 13:46:23;;;;;;;7.40;3.97;;;;;;;;;;6276932;28;20056;-70
2022/10/26 13:49:29;;;;;;;10.10;3.70;;;;;;;;;;6265011;28;20099;-66
2022/10/26 13:52:42;;;;;;;10.23;3.75;;;;;;;;;;6275136;28;20411;-66
2022/10/26 13:55:52;;;;;;;12.05;3.88;;;;;;;;;;6273220;28;20041;-68
2022/10/26 13:59:08;;;;;;;9.45;3.75;;;;;;;;;;6261887;28;20040;-64
2022/10/26 14:02:21;;;;;;;9.43;4.18;;;;;;;;;;6259155;28;20037;-66
2022/10/26 14:05:22;;;;;;;9.65;3.85;;;;;;;;;;6262809;28;20583;-64
2022/10/26 14:08:23;;;;;;;7.95;3.95;;;;;;;;;;6256410;28;20592;-65
2022/10/26 14:11:34;;;;;;;10.43;4.18;;;;;;;;;;6257239;28;20106;-69
2022/10/26 14:14:37;;;;;;;10.80;3.97;;;;;;;;;;6254171;28;20451;-72
2022/10/26 14:17:38;;;;;;;9.90;4.40;;;;;;;;;;6255413;28;20053;-70
2022/10/26 14:20:38;;;;;;;9.45;3.80;;;;;;;;;;6251130;28;20052;-69
2022/10/26 14:23:52;;;;;;;9.95;4.05;;;;;;;;;;6250169;28;20045;-67
2022/10/26 14:26:53;;;;;;;12.55;4.50;;;;;;;;;;6252630;28;20099;-67
2022/10/26 14:29:54;;;;;;;10.73;4.22;;;;;;;;;;6255772;28;20048;-73
2022/10/26 14:32:55;;;;;;;10.80;4.80;;;;;;;;;;6249188;28;20057;-70
2022/10/26 14:35:55;;;;;;;11.60;4.55;;;;;;;;;;6253510;28;20403;-73
2022/10/26 14:39:00;;;;;;;22.37;12.10;;;;;;;;;;6251458;28;20047;-73
2022/10/26 14:42:09;;;;;;;55.08;35.78;;;;;;;;;;6254064;28;20119;-66
2022/10/26 14:45:21;;;;;;;10.88;4.22;;;;;;;;;;6255564;28;20136;-67
2022/10/26 14:48:27;;;;;;;12.32;3.97;;;;;;;;;;6254703;28;20053;-68
2022/10/26 14:51:33;;;;;;;14.55;6.32;;;;;;;;;;6258981;28;20080;-66
2022/10/26 14:54:33;;;;;;;12.20;5.82;;;;;;;;;;6254265;28;20388;-65
2022/10/26 14:57:38;;;;;;;9.32;3.53;;;;;;;;;;6257617;28;20073;-65
2022/10/26 15:00:39;;;;;;;12.23;5.05;;;;;;;;;;6255602;28;20118;-65
2022/10/26 15:03:41;;;;;;;13.73;5.88;;;;;;;;;;6255613;28;20183;-67
2022/10/26 15:06:43;;;;;;;16.27;4.72;;;;;;;;;;6258995;28;20049;-65
2022/10/26 15:09:45;;;;;;;14.60;4.45;;;;;;;;;;6254597;28;20059;-66
2022/10/26 15:12:45;;;;;;;21.13;5.45;;;;;;;;;;6256330;28;20178;-64
2022/10/26 15:15:47;;;;;;;11.98;4.20;;;;;;;;;;6253728;28;20041;-64
2022/10/26 15:18:50;;;;;;;;;;;;;;;;;;6252010;28;20242;-64
2022/10/26 15:21:52;;;;;;;11.90;4.20;;;;;;;;;;6257071;28;20400;-67
2022/10/26 15:24:56;;;;;;;11.05;4.18;;;;;;;;;;6256086;28;20142;-69
2022/10/26 15:28:18;;;;;;;12.02;4.18;;;;;;;;;;6253127;28;20084;-69
2022/10/26 15:31:18;;;;;;;11.35;4.53;;;;;;;;;;6254803;28;20099;-68
2022/10/26 15:34:22;;;;;;;9.45;4.15;;;;;;;;;;6255582;28;20056;-69
2022/10/26 15:37:22;;;;;;;16.77;5.75;;;;;;;;;;6254450;28;20064;-65
2022/10/26 15:40:25;;;;;;;10.60;4.88;;;;;;;;;;6252098;28;20203;-68
2022/10/26 15:43:25;;;;;;;10.70;5.40;;;;;;;;;;6255529;28;20052;-68
2022/10/26 15:46:32;;;;;;;18.38;7.03;;;;;;;;;;6255938;28;20417;-70
2022/10/26 15:49:32;;;;;;;16.05;6.60;;;;;;;;;;6253514;28;20466;-68
2022/10/26 15:52:33;;;;;;;15.13;6.60;;;;;;;;;;6255470;28;20073;-65
2022/10/26 15:55:34;;;;;;;27.00;10.40;;;;;;;;;;6253834;28;20510;-64
2022/10/26 15:58:35;;;;;;;29.38;11.35;;;;;;;;;;6253816;28;22130;-69
2022/10/26 16:01:36;;;;;;;22.10;9.82;;;;;;;;;;6256974;28;20048;-65
2022/10/26 16:04:37;;;;;;;22.48;9.23;;;;;;;;;;6256014;28;20064;-69
2022/10/26 16:07:41;;;;;;;33.47;10.63;;;;;;;;;;6251300;28;20094;-66
2022/10/26 16:10:42;;;;;;;25.55;11.15;;;;;;;;;;6253580;28;20051;-64
2022/10/26 16:13:44;;;;;;;34.22;13.13;;;;;;;;;;6256911;28;20044;-68
2022/10/26 16:16:45;;;;;;;45.17;17.55;;;;;;;;;;6255431;28;20092;-69
2022/10/26 16:19:46;;;;;;;31.65;13.10;;;;;;;;;;6255374;28;20048;-67
2022/10/26 16:22:48;;;;;;;36.67;13.32;;;;;;;;;;6251609;28;20045;-65
2022/10/26 16:25:48;;;;;;;32.03;11.05;;;;;;;;;;6254812;28;20061;-65
2022/10/26 16:28:50;;;;;;;29.15;11.98;;;;;;;;;;6253790;28;20075;-66
2022/10/26 16:31:50;;;;;;;47.95;17.23;;;;;;;;;;6257695;28;20052;-67
2022/10/26 16:34:51;;;;;;;39.17;13.05;;;;;;;;;;6260522;28;20076;-65
2022/10/26 16:37:51;;;;;;;45.88;16.67;;;;;;;;;;6255554;28;20045;-65
2022/10/26 16:41:09;;;;;;;46.28;17.00;;;;;;;;;;6253069;28;20056;-69
2022/10/26 16:44:12;;;;;;;49.38;19.20;;;;;;;;;;6257322;28;20055;-70
2022/10/26 16:47:13;;;;;;;57.65;22.13;;;;;;;;;;6252790;28;20079;-65
2022/10/26 16:50:14;;;;;;;44.83;18.55;;;;;;;;;;6252085;28;20510;-64
2022/10/26 16:53:14;;;;;;;51.08;19.38;;;;;;;;;;6255731;28;20083;-64
2022/10/26 16:56:17;;;;;;;49.88;20.70;;;;;;;;;;6254412;28;20048;-66
2022/10/26 16:59:18;;;;;;;54.25;20.80;;;;;;;;;;6251806;28;20135;-68
2022/10/26 17:02:19;;;;;;;45.97;19.38;;;;;;;;;;6254773;28;20103;-69
2022/10/26 17:05:20;;;;;;;57.72;20.83;;;;;;;;;;6253535;28;20057;-69
2022/10/26 17:08:20;;;;;;;47.90;17.90;;;;;;;;;;6251531;28;20052;-67
2022/10/26 17:11:21;;;;;;;36.40;14.90;;;;;;;;;;6254412;28;20147;-65
2022/10/26 17:14:21;;;;;;;39.72;15.98;;;;;;;;;;6250668;28;20136;-64
2022/10/26 17:17:22;;;;;;;37.00;13.10;;;;;;;;;;6253651;28;20053;-65
2022/10/26 17:20:22;;;;;;;44.75;14.60;;;;;;;;;;6254704;28;20044;-67
2022/10/26 17:23:23;;;;;;;43.15;15.80;;;;;;;;;;6255444;28;20056;-67
2022/10/26 17:26:24;;;;;;;35.97;14.65;;;;;;;;;;6253596;28;20057;-65
2022/10/26 17:29:25;;;;;;;32.53;14.40;;;;;;;;;;6251660;28;20079;-68
2022/10/26 17:32:25;;;;;;;51.20;17.00;;;;;;;;;;6253981;28;20474;-63
2022/10/26 17:35:26;;;;;;;39.33;16.65;;;;;;;;;;6254292;28;20080;-65
2022/10/26 17:38:33;;;;;;;44.05;16.40;;;;;;;;;;6250014;28;20099;-67
2022/10/26 17:41:34;;;;;;;55.75;21.30;;;;;;;;;;6254541;28;20054;-65
2022/10/26 17:44:37;;;;;;;67.63;22.00;;;;;;;;;;6251787;28;20466;-67
2022/10/26 17:47:38;;;;;;;69.25;23.60;;;;;;;;;;6256923;28;20633;-65
2022/10/26 17:50:38;;;;;;;62.97;21.48;;;;;;;;;;6257568;28;20037;-64
2022/10/26 17:53:39;;;;;;;58.03;21.17;;;;;;;;;;6257677;28;20090;-64
2022/10/26 17:56:40;;;;;;;59.28;20.90;;;;;;;;;;6258888;28;20041;-69
2022/10/26 17:59:40;;;;;;;79.70;26.67;;;;;;;;;;6256669;28;20048;-68
2022/10/26 18:02:41;;;;;;;62.70;23.75;;;;;;;;;;6261627;28;20915;-66
2022/10/26 18:05:48;;;;;;;79.80;27.67;;;;;;;;;;6260113;28;20979;-64
2022/10/26 18:08:48;;;;;;;72.35;23.42;;;;;;;;;;6258769;28;20126;-68